createdAt,value
2018-05-09T00:00:04.310Z,12.375
2018-05-09T00:01:04.209Z,12.437
2018-05-09T00:02:04.262Z,12.375
2018-05-09T00:03:04.338Z,12.25
2018-05-09T00:04:03.660Z,12.25
2018-05-09T00:05:03.945Z,12.25
2018-05-09T00:06:05.294Z,12.312
2018-05-09T00:07:03.354Z,12.312
2018-05-09T00:08:04.553Z,12.312
2018-05-09T00:09:04.073Z,12.312
2018-05-09T00:10:03.693Z,12.25
2018-05-09T00:11:03.693Z,12.125
2018-05-09T00:12:04.298Z,12.062
2018-05-09T00:13:03.819Z,12
2018-05-09T00:14:03.637Z,11.937
2018-05-09T00:15:03.970Z,11.875
2018-05-09T00:16:04.722Z,11.937
2018-05-09T00:17:04.395Z,11.812
2018-05-09T00:18:03.838Z,11.812
2018-05-09T00:19:04.183Z,11.75
2018-05-09T00:20:03.735Z,11.75
2018-05-09T00:21:03.547Z,11.687
2018-05-09T00:22:04.279Z,11.625
2018-05-09T00:23:03.546Z,11.562
2018-05-09T00:24:03.897Z,11.5
2018-05-09T00:25:03.637Z,11.437
2018-05-09T00:26:04.439Z,11.375
2018-05-09T00:27:03.634Z,11.375
2018-05-09T00:28:03.912Z,11.375
2018-05-09T00:29:03.392Z,11.437
2018-05-09T00:30:04.080Z,11.437
2018-05-09T00:31:03.382Z,11.437
2018-05-09T00:32:03.719Z,11.5
2018-05-09T00:33:04.024Z,11.5
2018-05-09T00:34:03.568Z,11.562
2018-05-09T00:35:03.446Z,11.562
2018-05-09T00:36:04.743Z,11.562
2018-05-09T00:37:04.051Z,11.5
2018-05-09T00:38:03.904Z,11.5
2018-05-09T00:39:04.468Z,11.437
2018-05-09T00:40:04.043Z,11.437
2018-05-09T00:41:03.755Z,11.375
2018-05-09T00:42:03.371Z,11.312
2018-05-09T00:43:03.802Z,11.25
2018-05-09T00:44:03.480Z,11.187
2018-05-09T00:45:03.978Z,11.125
2018-05-09T00:46:04.021Z,11.062
2018-05-09T00:47:03.620Z,11.125
2018-05-09T00:48:04.068Z,11.187
2018-05-09T00:49:03.422Z,11.25
2018-05-09T00:50:03.918Z,11.187
2018-05-09T00:51:05.043Z,11.187
2018-05-09T00:52:04.275Z,11.25
2018-05-09T00:53:03.577Z,11.312
2018-05-09T00:54:03.924Z,11.25
2018-05-09T00:55:03.545Z,11.437
2018-05-09T00:56:03.944Z,11.375
2018-05-09T00:57:03.248Z,11.312
2018-05-09T00:58:03.493Z,11.187
2018-05-09T00:59:03.497Z,11.25
2018-05-09T01:00:04.096Z,11.25
2018-05-09T01:01:04.087Z,11.25
2018-05-09T01:02:03.468Z,11.187
2018-05-09T01:03:03.694Z,11.125
2018-05-09T01:04:04.121Z,11.125
2018-05-09T01:05:03.992Z,11.125
2018-05-09T01:06:04.250Z,11.062
2018-05-09T01:07:03.447Z,11
2018-05-09T01:08:03.941Z,11.062
2018-05-09T01:09:03.775Z,11.125
2018-05-09T01:10:04.058Z,11
2018-05-09T01:11:03.568Z,11.062
2018-05-09T01:12:04.075Z,11.062
2018-05-09T01:13:03.460Z,11.062
2018-05-09T01:14:03.869Z,11.062
2018-05-09T01:15:03.722Z,11.125
2018-05-09T01:16:05.008Z,11.062
2018-05-09T01:17:04.546Z,11.062
2018-05-09T01:18:03.930Z,11
2018-05-09T01:19:03.362Z,10.937
2018-05-09T01:20:03.557Z,11
2018-05-09T01:21:04.173Z,10.937
2018-05-09T01:22:03.686Z,10.812
2018-05-09T01:23:04.209Z,10.812
2018-05-09T01:24:05.207Z,10.75
2018-05-09T01:25:03.532Z,10.625
2018-05-09T01:26:03.525Z,10.625
2018-05-09T01:27:04.166Z,10.687
2018-05-09T01:28:03.850Z,10.687
2018-05-09T01:29:04.172Z,10.687
2018-05-09T01:30:03.953Z,10.625
2018-05-09T01:31:03.809Z,10.687
2018-05-09T01:32:03.399Z,10.75
2018-05-09T01:33:04.053Z,10.75
2018-05-09T01:34:03.686Z,10.687
2018-05-09T01:35:04.190Z,10.625
2018-05-09T01:36:04.894Z,10.562
2018-05-09T01:37:04.201Z,10.562
2018-05-09T01:38:03.882Z,10.562
2018-05-09T01:39:04.465Z,10.5
2018-05-09T01:40:04.090Z,10.437
2018-05-09T01:41:03.625Z,10.375
2018-05-09T01:42:04.130Z,10.5
2018-05-09T01:43:03.650Z,10.625
2018-05-09T01:44:04.153Z,10.5
2018-05-09T01:45:03.824Z,10.625
2018-05-09T01:46:03.345Z,10.562
2018-05-09T01:47:03.968Z,10.687
2018-05-09T01:48:03.475Z,10.75
2018-05-09T01:49:03.975Z,10.75
2018-05-09T01:50:04.607Z,10.875
2018-05-09T01:51:04.125Z,10.875
2018-05-09T01:52:03.893Z,10.875
2018-05-09T01:53:04.172Z,10.875
2018-05-09T01:54:03.644Z,10.937
2018-05-09T01:55:04.198Z,11
2018-05-09T01:56:03.708Z,10.937
2018-05-09T01:57:04.171Z,10.937
2018-05-09T01:58:03.636Z,10.937
2018-05-09T01:59:04.103Z,10.875
2018-05-09T02:00:03.944Z,10.812
2018-05-09T02:01:03.461Z,10.812
2018-05-09T02:02:03.990Z,10.875
2018-05-09T02:03:03.737Z,10.875
2018-05-09T02:04:03.572Z,10.812
2018-05-09T02:05:04.066Z,10.812
2018-05-09T02:06:04.071Z,10.875
2018-05-09T02:07:03.527Z,10.937
2018-05-09T02:08:03.581Z,10.937
2018-05-09T02:09:04.308Z,11
2018-05-09T02:10:03.787Z,11.062
2018-05-09T02:11:04.287Z,11.062
2018-05-09T02:12:04.963Z,11
2018-05-09T02:13:03.319Z,11
2018-05-09T02:14:03.919Z,11
2018-05-09T02:15:03.883Z,11
2018-05-09T02:16:03.930Z,11.062
2018-05-09T02:17:03.650Z,11.062
2018-05-09T02:18:04.268Z,11
2018-05-09T02:19:03.780Z,11.062
2018-05-09T02:20:03.723Z,11.062
2018-05-09T02:21:04.556Z,11.062
2018-05-09T02:22:03.532Z,11.062
2018-05-09T02:23:04.356Z,11.062
2018-05-09T02:24:04.037Z,11.125
2018-05-09T02:25:03.522Z,11.125
2018-05-09T02:26:04.117Z,11.062
2018-05-09T02:27:03.545Z,10.937
2018-05-09T02:28:04.279Z,10.812
2018-05-09T02:29:03.468Z,10.75
2018-05-09T02:30:03.752Z,10.75
2018-05-09T02:31:04.149Z,10.812
2018-05-09T02:32:03.595Z,10.875
2018-05-09T02:33:04.111Z,10.812
2018-05-09T02:34:04.193Z,10.75
2018-05-09T02:35:03.978Z,10.75
2018-05-09T02:36:03.653Z,10.687
2018-05-09T02:37:04.195Z,10.625
2018-05-09T02:38:03.602Z,10.625
2018-05-09T02:39:04.368Z,10.687
2018-05-09T02:40:04.013Z,10.687
2018-05-09T02:41:04.524Z,10.625
2018-05-09T02:42:04.342Z,10.625
2018-05-09T02:43:03.723Z,10.562
2018-05-09T02:44:03.515Z,10.562
2018-05-09T02:45:03.920Z,10.5
2018-05-09T02:46:03.373Z,10.562
2018-05-09T02:47:03.420Z,10.625
2018-05-09T02:48:03.897Z,10.625
2018-05-09T02:49:03.385Z,10.562
2018-05-09T02:50:03.685Z,10.5
2018-05-09T02:51:04.172Z,10.375
2018-05-09T02:52:04.782Z,10.312
2018-05-09T02:53:03.638Z,10.187
2018-05-09T02:54:03.459Z,10.125
2018-05-09T02:55:04.791Z,10.125
2018-05-09T02:56:04.067Z,10.062
2018-05-09T02:57:03.651Z,10.062
2018-05-09T02:58:04.310Z,10
2018-05-09T02:59:03.833Z,10
2018-05-09T03:00:03.624Z,9.937
2018-05-09T03:01:04.312Z,9.875
2018-05-09T03:02:04.049Z,9.875
2018-05-09T03:03:03.743Z,9.875
2018-05-09T03:04:04.289Z,9.937
2018-05-09T03:05:04.062Z,9.875
2018-05-09T03:06:03.434Z,9.875
2018-05-09T03:07:03.303Z,9.937
2018-05-09T03:08:03.680Z,9.937
2018-05-09T03:09:04.421Z,9.937
2018-05-09T03:10:03.885Z,9.875
2018-05-09T03:11:03.829Z,9.812
2018-05-09T03:12:03.578Z,9.812
2018-05-09T03:13:04.012Z,9.75
2018-05-09T03:14:04.311Z,9.875
2018-05-09T03:15:03.928Z,9.875
2018-05-09T03:16:04.222Z,9.875
2018-05-09T03:17:03.936Z,9.812
2018-05-09T03:18:03.413Z,9.812
2018-05-09T03:19:03.924Z,9.812
2018-05-09T03:20:03.566Z,9.812
2018-05-09T03:21:04.234Z,9.75
2018-05-09T03:22:03.598Z,9.75
2018-05-09T03:23:03.912Z,9.812
2018-05-09T03:24:04.164Z,9.875
2018-05-09T03:25:04.294Z,9.937
2018-05-09T03:26:03.877Z,9.875
2018-05-09T03:27:03.806Z,9.937
2018-05-09T03:28:03.968Z,9.937
2018-05-09T03:29:03.664Z,10
2018-05-09T03:30:04.530Z,10.062
2018-05-09T03:31:03.756Z,10.125
2018-05-09T03:32:04.284Z,10.125
2018-05-09T03:33:03.892Z,10.187
2018-05-09T03:34:04.239Z,10.187
2018-05-09T03:35:03.944Z,10.25
2018-05-09T03:36:03.530Z,10.375
2018-05-09T03:37:03.637Z,10.375
2018-05-09T03:38:04.256Z,10.375
2018-05-09T03:39:04.490Z,10.437
2018-05-09T03:40:04.101Z,10.5
2018-05-09T03:41:03.837Z,10.562
2018-05-09T03:42:04.442Z,10.625
2018-05-09T03:43:04.034Z,10.687
2018-05-09T03:44:04.232Z,10.812
2018-05-09T03:45:03.935Z,10.937
2018-05-09T03:46:04.904Z,11.062
2018-05-09T03:47:03.381Z,11.062
2018-05-09T03:48:03.883Z,11.187
2018-05-09T03:49:03.626Z,11.312
2018-05-09T03:50:04.145Z,11.5
2018-05-09T03:51:03.665Z,11.687
2018-05-09T03:52:04.275Z,11.812
2018-05-09T03:53:03.764Z,11.875
2018-05-09T03:54:04.423Z,12
2018-05-09T03:55:03.822Z,12.062
2018-05-09T03:56:04.571Z,12.187
2018-05-09T03:57:03.719Z,12.312
2018-05-09T03:58:04.690Z,12.5
2018-05-09T03:59:04.008Z,12.687
2018-05-09T04:00:03.720Z,12.875
2018-05-09T04:01:03.464Z,13.062
2018-05-09T04:02:04.117Z,13.25
2018-05-09T04:03:03.405Z,13.437
2018-05-09T04:04:03.980Z,13.625
2018-05-09T04:05:03.817Z,13.812
2018-05-09T04:06:04.168Z,13.937
2018-05-09T04:07:03.536Z,14.125
2018-05-09T04:08:03.628Z,14.312
2018-05-09T04:09:04.165Z,14.437
2018-05-09T04:10:03.732Z,14.562
2018-05-09T04:11:03.594Z,14.75
2018-05-09T04:12:04.132Z,14.937
2018-05-09T04:13:03.847Z,15.062
2018-05-09T04:14:03.457Z,15.312
2018-05-09T04:15:04.050Z,15.437
2018-05-09T04:16:03.528Z,15.687
2018-05-09T04:17:04.148Z,15.937
2018-05-09T04:18:03.997Z,16.187
2018-05-09T04:19:03.467Z,16.375
2018-05-09T04:20:04.482Z,16.562
2018-05-09T04:21:04.775Z,16.75
2018-05-09T04:22:05.046Z,17
2018-05-09T04:23:03.834Z,17.187
2018-05-09T04:24:03.539Z,17.375
2018-05-09T04:25:04.688Z,17.562
2018-05-09T04:26:03.666Z,17.687
2018-05-09T04:27:04.146Z,17.937
2018-05-09T04:28:04.260Z,18.187
2018-05-09T04:29:03.735Z,18.375
2018-05-09T04:30:04.302Z,18.5
2018-05-09T04:31:04.465Z,18.687
2018-05-09T04:32:03.952Z,18.812
2018-05-09T04:33:04.346Z,18.937
2018-05-09T04:34:04.108Z,19.187
2018-05-09T04:35:03.734Z,19.437
2018-05-09T04:36:03.302Z,19.562
2018-05-09T04:37:03.937Z,19.75
2018-05-09T04:38:04.346Z,19.937
2018-05-09T04:39:04.101Z,20.125
2018-05-09T04:40:04.261Z,20.25
2018-05-09T04:41:03.885Z,20.437
2018-05-09T04:42:03.734Z,20.687
2018-05-09T04:43:04.043Z,20.75
2018-05-09T04:44:04.414Z,20.875
2018-05-09T04:45:03.723Z,21
2018-05-09T04:46:03.454Z,21.125
2018-05-09T04:47:04.124Z,21.25
2018-05-09T04:48:03.801Z,21.437
2018-05-09T04:49:03.391Z,21.687
2018-05-09T04:50:04.023Z,21.937
2018-05-09T04:51:03.680Z,22.062
2018-05-09T04:52:04.278Z,22.25
2018-05-09T04:53:03.591Z,22.375
2018-05-09T04:54:03.390Z,22.562
2018-05-09T04:55:03.956Z,22.75
2018-05-09T04:56:04.473Z,22.937
2018-05-09T04:57:03.925Z,23.125
2018-05-09T04:58:03.527Z,23.125
2018-05-09T04:59:04.151Z,23.312
2018-05-09T05:00:04.057Z,23.562
2018-05-09T05:01:03.984Z,23.562
2018-05-09T05:02:03.507Z,23.625
2018-05-09T05:03:04.107Z,23.812
2018-05-09T05:04:03.816Z,24
2018-05-09T05:05:03.852Z,24.187
2018-05-09T05:06:04.258Z,24.312
2018-05-09T05:07:03.720Z,24.562
2018-05-09T05:08:04.213Z,24.562
2018-05-09T05:09:04.166Z,24.625
2018-05-09T05:10:03.785Z,24.687
2018-05-09T05:11:04.124Z,24.812
2018-05-09T05:12:03.867Z,24.812
2018-05-09T05:13:04.395Z,24.937
2018-05-09T05:14:03.348Z,25.187
2018-05-09T05:15:04.295Z,25.125
2018-05-09T05:16:03.925Z,25.437
2018-05-09T05:17:04.507Z,25.687
2018-05-09T05:18:03.538Z,25.812
2018-05-09T05:19:04.212Z,26.125
2018-05-09T05:20:03.799Z,26.312
2018-05-09T05:21:05.621Z,26.375
2018-05-09T05:22:03.556Z,26.5
2018-05-09T05:23:04.127Z,26.687
2018-05-09T05:24:03.670Z,26.75
2018-05-09T05:25:04.258Z,26.937
2018-05-09T05:26:03.938Z,27.187
2018-05-09T05:27:03.502Z,27.312
2018-05-09T05:28:03.636Z,27.375
2018-05-09T05:29:04.106Z,27.5
2018-05-09T05:30:03.746Z,27.562
2018-05-09T05:31:04.364Z,27.5
2018-05-09T05:32:04.844Z,27.625
2018-05-09T05:33:04.383Z,27.75
2018-05-09T05:34:03.844Z,28
2018-05-09T05:35:03.540Z,27.937
2018-05-09T05:36:04.198Z,27.687
2018-05-09T05:37:03.704Z,27.75
2018-05-09T05:38:04.292Z,27.437
2018-05-09T05:39:04.274Z,27.562
2018-05-09T05:40:04.239Z,27.5
2018-05-09T05:41:03.401Z,27.625
2018-05-09T05:42:03.629Z,27.625
2018-05-09T05:43:04.308Z,27.687
2018-05-09T05:44:03.796Z,28
2018-05-09T05:45:03.807Z,27.937
2018-05-09T05:46:04.257Z,28.125
2018-05-09T05:47:03.730Z,28.437
2018-05-09T05:48:04.245Z,28.812
2018-05-09T05:49:03.924Z,28.875
2018-05-09T05:50:04.191Z,28.562
2018-05-09T05:51:05.251Z,28.812
2018-05-09T05:52:03.632Z,28.875
2018-05-09T05:53:03.476Z,28.625
2018-05-09T05:54:04.160Z,28.562
2018-05-09T05:55:03.462Z,28.5
2018-05-09T05:56:04.212Z,28.5
2018-05-09T05:57:03.461Z,28.937
2018-05-09T05:58:03.766Z,28.875
2018-05-09T05:59:04.358Z,29
2018-05-09T06:00:04.081Z,29.25
2018-05-09T06:01:05.322Z,29.187
2018-05-09T06:02:03.640Z,28.812
2018-05-09T06:03:04.284Z,28.687
2018-05-09T06:04:03.898Z,28.687
2018-05-09T06:05:03.541Z,28.937
2018-05-09T06:06:03.912Z,29.375
2018-05-09T06:07:03.733Z,29.75
2018-05-09T06:08:03.833Z,30.062
2018-05-09T06:09:04.442Z,30.312
2018-05-09T06:10:04.216Z,30.437
2018-05-09T06:11:04.278Z,30.625
2018-05-09T06:12:03.572Z,30.875
2018-05-09T06:13:05.305Z,31.25
2018-05-09T06:14:03.636Z,31.25
2018-05-09T06:15:04.287Z,31.437
2018-05-09T06:16:03.884Z,31.25
2018-05-09T06:17:03.555Z,31.187
2018-05-09T06:18:04.142Z,30.562
2018-05-09T06:19:03.636Z,30.937
2018-05-09T06:20:04.680Z,31.062
2018-05-09T06:21:04.456Z,30.5
2018-05-09T06:22:03.865Z,30.5
2018-05-09T06:23:04.417Z,30.687
2018-05-09T06:24:04.277Z,31.062
2018-05-09T06:25:03.748Z,31.25
2018-05-09T06:26:03.740Z,31.125
2018-05-09T06:27:03.477Z,31.125
2018-05-09T06:28:03.522Z,31.187
2018-05-09T06:29:04.082Z,30.687
2018-05-09T06:30:03.656Z,30.687
2018-05-09T06:31:03.916Z,30.5
2018-05-09T06:32:04.068Z,30.625
2018-05-09T06:33:03.774Z,30.812
2018-05-09T06:34:04.326Z,30.812
2018-05-09T06:35:03.705Z,30.75
2018-05-09T06:36:04.243Z,31.125
2018-05-09T06:37:03.981Z,31.062
2018-05-09T06:38:03.702Z,31.062
2018-05-09T06:39:04.205Z,30.937
2018-05-09T06:40:03.919Z,31.687
2018-05-09T06:41:05.843Z,32.187
2018-05-09T06:42:04.023Z,32.25
2018-05-09T06:43:03.652Z,31.687
2018-05-09T06:44:03.823Z,31.687
2018-05-09T06:45:04.360Z,31.562
2018-05-09T06:46:03.878Z,31.75
2018-05-09T06:47:03.743Z,31.687
2018-05-09T06:48:03.437Z,31.937
2018-05-09T06:49:03.866Z,32.312
2018-05-09T06:50:03.500Z,32.375
2018-05-09T06:51:04.476Z,32.437
2018-05-09T06:52:03.722Z,32.687
2018-05-09T06:53:03.790Z,33
2018-05-09T06:54:03.578Z,33.062
2018-05-09T06:55:04.143Z,33.125
2018-05-09T06:56:03.735Z,33.187
2018-05-09T06:57:03.386Z,33.312
2018-05-09T06:58:04.073Z,33.375
2018-05-09T06:59:03.896Z,33.375
2018-05-09T07:00:04.262Z,33.875
2018-05-09T07:01:04.408Z,34.125
2018-05-09T07:02:03.898Z,34.312
2018-05-09T07:03:03.548Z,34.062
2018-05-09T07:04:04.059Z,33.75
2018-05-09T07:05:03.579Z,34.25
2018-05-09T07:06:04.680Z,34.437
2018-05-09T07:07:03.884Z,34.625
2018-05-09T07:08:03.612Z,34.562
2018-05-09T07:09:04.470Z,34.625
2018-05-09T07:10:04.060Z,34.687
2018-05-09T07:11:03.797Z,34.562
2018-05-09T07:12:03.733Z,34.312
2018-05-09T07:13:03.609Z,34.437
2018-05-09T07:14:04.141Z,34.437
2018-05-09T07:15:03.747Z,34.562
2018-05-09T07:16:04.250Z,34.687
2018-05-09T07:17:03.908Z,34.75
2018-05-09T07:18:03.977Z,34.812
2018-05-09T07:19:03.339Z,35
2018-05-09T07:20:03.767Z,35.062
2018-05-09T07:21:03.393Z,35.312
2018-05-09T07:22:03.940Z,35.75
2018-05-09T07:23:03.670Z,35.687
2018-05-09T07:24:04.203Z,35.562
2018-05-09T07:25:04.026Z,35.625
2018-05-09T07:26:04.217Z,35.875
2018-05-09T07:27:03.833Z,35.625
2018-05-09T07:28:03.573Z,36
2018-05-09T07:29:04.267Z,35.937
2018-05-09T07:30:04.710Z,36.062
2018-05-09T07:31:04.775Z,35.562
2018-05-09T07:32:04.205Z,35.25
2018-05-09T07:33:03.889Z,35.437
2018-05-09T07:34:04.127Z,35.875
2018-05-09T07:35:03.696Z,36.187
2018-05-09T07:36:04.475Z,35.812
2018-05-09T07:37:03.980Z,35.687
2018-05-09T07:38:03.408Z,35.375
2018-05-09T07:39:04.659Z,34.687
2018-05-09T07:40:04.570Z,34.25
2018-05-09T07:41:05.165Z,34.437
2018-05-09T07:42:04.014Z,34.5
2018-05-09T07:43:03.727Z,34.75
2018-05-09T07:44:04.192Z,34.687
2018-05-09T07:45:03.949Z,34.375
2018-05-09T07:46:03.597Z,34.625
2018-05-09T07:47:04.052Z,34.75
2018-05-09T07:48:03.615Z,34.812
2018-05-09T07:49:04.139Z,35.437
2018-05-09T07:50:03.850Z,35.562
2018-05-09T07:51:04.358Z,35.437
2018-05-09T07:52:04.485Z,34.625
2018-05-09T07:53:03.780Z,34.75
2018-05-09T07:54:03.404Z,34.375
2018-05-09T07:55:03.859Z,34.312
2018-05-09T07:56:04.220Z,34.625
2018-05-09T07:57:03.949Z,35.125
2018-05-09T07:58:03.515Z,35.125
2018-05-09T07:59:04.132Z,35.375
2018-05-09T08:00:03.901Z,35.5
2018-05-09T08:01:04.183Z,35.312
2018-05-09T08:02:03.698Z,35.375
2018-05-09T08:03:04.236Z,35.437
2018-05-09T08:04:04.090Z,35.437
2018-05-09T08:05:03.600Z,34.75
2018-05-09T08:06:04.142Z,35.062
2018-05-09T08:07:03.584Z,34.375
2018-05-09T08:08:04.018Z,34.375
2018-05-09T08:09:04.186Z,34.25
2018-05-09T08:10:03.808Z,34.375
2018-05-09T08:11:03.619Z,34
2018-05-09T08:12:04.056Z,33.375
2018-05-09T08:13:03.477Z,33.812
2018-05-09T08:14:04.638Z,34.562
2018-05-09T08:15:03.939Z,34.312
2018-05-09T08:16:03.442Z,34.25
2018-05-09T08:17:04.253Z,34.437
2018-05-09T08:18:03.472Z,34.312
2018-05-09T08:19:03.944Z,33.687
2018-05-09T08:20:03.569Z,33.687
2018-05-09T08:21:04.352Z,33.937
2018-05-09T08:22:03.563Z,33.437
2018-05-09T08:23:04.066Z,33.625
2018-05-09T08:24:03.629Z,34.125
2018-05-09T08:25:04.146Z,34.312
2018-05-09T08:26:03.610Z,35
2018-05-09T08:27:04.183Z,35.062
2018-05-09T08:28:03.647Z,35.687
2018-05-09T08:29:04.282Z,35.625
2018-05-09T08:30:04.077Z,35.937
2018-05-09T08:31:03.526Z,35.437
2018-05-09T08:32:04.154Z,35.625
2018-05-09T08:33:03.673Z,35.937
2018-05-09T08:34:04.240Z,35.875
2018-05-09T08:35:03.877Z,35
2018-05-09T08:36:04.411Z,34.875
2018-05-09T08:37:03.742Z,34.875
2018-05-09T08:38:03.397Z,34.75
2018-05-09T08:39:04.259Z,34.875
2018-05-09T08:40:03.994Z,35.562
2018-05-09T08:41:03.506Z,36.062
2018-05-09T08:42:04.075Z,36.625
2018-05-09T08:43:03.729Z,36.562
2018-05-09T08:44:04.277Z,36.437
2018-05-09T08:45:04.370Z,36.5
2018-05-09T08:46:03.837Z,36.625
2018-05-09T08:47:04.256Z,36.687
2018-05-09T08:48:03.726Z,36.5
2018-05-09T08:49:04.296Z,36.5
2018-05-09T08:50:04.545Z,36.437
2018-05-09T08:51:03.431Z,36
2018-05-09T08:52:04.022Z,36.062
2018-05-09T08:53:03.702Z,35.812
2018-05-09T08:54:03.545Z,36
2018-05-09T08:55:03.980Z,35.687
2018-05-09T08:56:03.602Z,36
2018-05-09T08:57:04.179Z,35.875
2018-05-09T08:58:03.582Z,35.562
2018-05-09T08:59:04.005Z,35.312
2018-05-09T09:00:03.737Z,35.187
2018-05-09T09:01:03.664Z,35.437
2018-05-09T09:02:03.463Z,35.875
2018-05-09T09:03:03.804Z,35.812
2018-05-09T09:04:03.756Z,35.5
2018-05-09T09:05:03.745Z,35.187
2018-05-09T09:06:04.464Z,35.062
2018-05-09T09:07:03.811Z,35.312
2018-05-09T09:08:04.532Z,35.375
2018-05-09T09:09:04.551Z,35.5
2018-05-09T09:10:04.013Z,35
2018-05-09T09:11:03.483Z,34.75
2018-05-09T09:12:03.327Z,35.062
2018-05-09T09:13:03.967Z,35.5
2018-05-09T09:14:03.512Z,35.562
2018-05-09T09:15:04.216Z,35.75
2018-05-09T09:16:04.132Z,35.875
2018-05-09T09:17:03.830Z,35.625
2018-05-09T09:18:03.483Z,35.375
2018-05-09T09:19:03.883Z,35.25
2018-05-09T09:20:03.728Z,35.562
2018-05-09T09:21:05.061Z,35.5
2018-05-09T09:22:03.395Z,35.562
2018-05-09T09:23:03.728Z,36
2018-05-09T09:24:03.363Z,36.312
2018-05-09T09:25:03.689Z,36.25
2018-05-09T09:26:04.229Z,36.062
2018-05-09T09:27:03.837Z,36
2018-05-09T09:28:03.538Z,36
2018-05-09T09:29:04.244Z,36.125
2018-05-09T09:30:04.023Z,36.25
2018-05-09T09:31:04.676Z,36.562
2018-05-09T09:32:04.121Z,36.75
2018-05-09T09:33:03.636Z,37.125
2018-05-09T09:34:04.106Z,37.187
2018-05-09T09:35:03.777Z,36.937
2018-05-09T09:37:04.117Z,35.75
2018-05-09T09:38:03.716Z,35.687
2018-05-09T09:39:04.454Z,35.75
2018-05-09T09:40:04.095Z,35.562
2018-05-09T09:41:03.956Z,35.25
2018-05-09T09:42:03.932Z,34.937
2018-05-09T09:43:04.125Z,34.375
2018-05-09T09:44:03.879Z,33.562
2018-05-09T09:45:03.526Z,33.687
2018-05-09T09:46:04.059Z,33.437
2018-05-09T09:47:04.032Z,33.812
2018-05-09T09:48:03.555Z,33.937
2018-05-09T09:49:04.103Z,34.187
2018-05-09T09:50:03.771Z,34.187
2018-05-09T09:51:03.517Z,34.125
2018-05-09T09:52:03.787Z,34.562
2018-05-09T09:53:03.342Z,34.75
2018-05-09T09:54:04.003Z,34.687
2018-05-09T09:55:04.035Z,35.375
2018-05-09T09:56:04.126Z,35.875
2018-05-09T09:57:03.544Z,35.812
2018-05-09T09:58:04.085Z,35.75
2018-05-09T09:59:03.533Z,35.562
2018-05-09T10:00:03.968Z,35.187
2018-05-09T10:01:05.329Z,35.25
2018-05-09T10:02:03.836Z,35.25
2018-05-09T10:03:04.461Z,34.875
2018-05-09T10:04:03.931Z,34.75
2018-05-09T10:06:03.769Z,33.375
2018-05-09T10:07:03.412Z,32.937
2018-05-09T10:08:03.534Z,33.25
2018-05-09T10:09:04.322Z,33.687
2018-05-09T10:10:03.689Z,34.125
2018-05-09T10:11:04.461Z,34.812
2018-05-09T10:12:03.914Z,34.5
2018-05-09T10:13:03.811Z,34.812
2018-05-09T10:14:03.436Z,35
2018-05-09T10:15:03.978Z,35.125
2018-05-09T10:16:03.467Z,35.562
2018-05-09T10:17:04.338Z,35.25
2018-05-09T10:18:03.557Z,34.375
2018-05-09T10:19:04.186Z,34.25
2018-05-09T10:20:03.806Z,34.062
2018-05-09T10:21:04.045Z,33.812
2018-05-09T10:22:03.412Z,33.562
2018-05-09T10:23:04.041Z,33.687
2018-05-09T10:24:03.661Z,33.5
2018-05-09T10:25:03.380Z,33.625
2018-05-09T10:26:04.109Z,33.312
2018-05-09T10:27:03.613Z,32.937
2018-05-09T10:28:04.052Z,32.875
2018-05-09T10:29:03.915Z,33
2018-05-09T10:30:03.486Z,32.937
2018-05-09T10:31:04.083Z,33.187
2018-05-09T10:32:03.750Z,33.312
2018-05-09T10:33:03.790Z,33.5
2018-05-09T10:34:04.087Z,33.25
2018-05-09T10:35:03.742Z,32.875
2018-05-09T10:36:07.026Z,32.937
2018-05-09T10:37:03.984Z,33.625
2018-05-09T10:38:03.815Z,33.812
2018-05-09T10:39:04.969Z,33.812
2018-05-09T10:40:03.768Z,33.25
2018-05-09T10:41:05.650Z,33
2018-05-09T10:42:05.331Z,32.875
2018-05-09T10:43:07.036Z,32.5
2018-05-09T10:44:03.911Z,32.187
2018-05-09T10:45:03.823Z,32.125
2018-05-09T10:46:04.277Z,32.125
2018-05-09T10:47:03.672Z,31.625
2018-05-09T10:48:04.375Z,31.812
2018-05-09T10:49:04.169Z,31.437
2018-05-09T10:50:04.146Z,31.375
2018-05-09T10:51:03.962Z,31.062
2018-05-09T10:52:04.011Z,31.062
2018-05-09T10:53:04.344Z,30.687
2018-05-09T10:54:03.938Z,30.75
2018-05-09T10:55:03.979Z,30.75
2018-05-09T10:56:03.706Z,30.937
2018-05-09T10:57:03.380Z,31.062
2018-05-09T10:58:04.232Z,30.875
2018-05-09T10:59:04.002Z,31
2018-05-09T11:00:04.039Z,30.875
2018-05-09T11:01:05.437Z,30.687
2018-05-09T11:02:03.932Z,30.5
2018-05-09T11:03:03.539Z,30.437
2018-05-09T11:04:04.252Z,30.5
2018-05-09T11:05:04.076Z,30.562
2018-05-09T11:06:03.671Z,30.562
2018-05-09T11:07:03.446Z,30.875
2018-05-09T11:08:03.991Z,30.812
2018-05-09T11:09:04.803Z,30.812
2018-05-09T11:10:03.477Z,30.625
2018-05-09T11:11:04.123Z,30.75
2018-05-09T11:12:03.872Z,30.312
2018-05-09T11:13:03.413Z,29.875
2018-05-09T11:14:04.149Z,29.75
2018-05-09T11:15:03.967Z,29.812
2018-05-09T11:16:05.341Z,29.687
2018-05-09T11:17:03.942Z,29.312
2018-05-09T11:18:03.564Z,29.437
2018-05-09T11:19:04.188Z,29.375
2018-05-09T11:20:04.197Z,29.375
2018-05-09T11:21:03.998Z,29.312
2018-05-09T11:22:03.494Z,29.25
2018-05-09T11:23:04.120Z,29.187
2018-05-09T11:24:04.157Z,28.75
2018-05-09T11:25:03.644Z,28.687
2018-05-09T11:26:05.410Z,28.875
2018-05-09T11:27:03.688Z,29.187
2018-05-09T11:28:04.028Z,29.312
2018-05-09T11:29:04.362Z,29.5
2018-05-09T11:30:04.123Z,29.562
2018-05-09T11:31:04.335Z,29.625
2018-05-09T11:32:03.871Z,30
2018-05-09T11:33:03.610Z,30
2018-05-09T11:34:04.078Z,30.187
2018-05-09T11:35:03.503Z,30.5
2018-05-09T11:36:04.088Z,30.625
2018-05-09T11:37:03.544Z,30.875
2018-05-09T11:38:03.558Z,31.25
2018-05-09T11:39:04.355Z,31.312
2018-05-09T11:40:04.095Z,31.375
2018-05-09T11:41:04.831Z,31
2018-05-09T11:42:04.213Z,30.812
2018-05-09T11:43:03.761Z,30.875
2018-05-09T11:44:04.277Z,30.937
2018-05-09T11:45:04.029Z,31.187
2018-05-09T11:46:03.633Z,31.187
2018-05-09T11:47:03.970Z,31.125
2018-05-09T11:48:04.236Z,30.937
2018-05-09T11:49:03.585Z,30.875
2018-05-09T11:50:04.159Z,30.625
2018-05-09T11:51:05.203Z,30.625
2018-05-09T11:52:03.445Z,30.812
2018-05-09T11:53:03.947Z,30.812
2018-05-09T11:54:04.407Z,30.75
2018-05-09T11:55:03.688Z,30.125
2018-05-09T11:56:04.263Z,29.562
2018-05-09T11:57:03.378Z,29.625
2018-05-09T11:58:03.927Z,29.625
2018-05-09T11:59:03.548Z,29.625
2018-05-09T12:00:04.510Z,29.562
2018-05-09T12:01:05.005Z,29.562
2018-05-09T12:02:03.899Z,29.437
2018-05-09T12:03:03.518Z,29.625
2018-05-09T12:04:04.203Z,29.625
2018-05-09T12:05:03.760Z,29.687
2018-05-09T12:06:04.224Z,29.812
2018-05-09T12:07:03.799Z,30
2018-05-09T12:08:03.381Z,30.062
2018-05-09T12:09:04.217Z,30
2018-05-09T12:10:04.153Z,30
2018-05-09T12:11:04.780Z,29.75
2018-05-09T12:12:03.345Z,29.687
2018-05-09T12:13:04.000Z,29.75
2018-05-09T12:14:03.531Z,30.125
2018-05-09T12:15:04.082Z,30.375
2018-05-09T12:16:04.276Z,30.375
2018-05-09T12:17:03.870Z,30.437
2018-05-09T12:18:03.509Z,30.437
2018-05-09T12:19:04.183Z,30.687
2018-05-09T12:20:03.827Z,30.375
2018-05-09T12:21:04.741Z,30.312
2018-05-09T12:22:04.303Z,30.25
2018-05-09T12:23:03.917Z,30.375
2018-05-09T12:24:03.663Z,30.312
2018-05-09T12:25:09.208Z,30.187
2018-05-09T12:26:04.220Z,30.125
2018-05-09T12:27:03.917Z,30.187
2018-05-09T12:28:03.374Z,30.187
2018-05-09T12:29:03.945Z,30
2018-05-09T12:30:03.437Z,29.937
2018-05-09T12:31:06.915Z,29.875
2018-05-09T12:32:04.250Z,29.625
2018-05-09T12:33:04.020Z,29.187
2018-05-09T12:34:03.613Z,28.937
2018-05-09T12:35:03.930Z,28.875
2018-05-09T12:36:03.487Z,28.875
2018-05-09T12:37:04.331Z,28.812
2018-05-09T12:38:04.022Z,28.625
2018-05-09T12:39:04.095Z,28.625
2018-05-09T12:40:03.769Z,28.687
2018-05-09T12:41:04.342Z,28.687
2018-05-09T12:42:04.264Z,28.875